sensor_id;sensor_type;location;lat;lon;timestamp;pressure;altitude;pressure_sealevel;temperature;humidity
53116;BME280;39010;48.088;7.954;2023-01-28T00:00:46;99119.50;;;-0.17;83.78
53116;BME280;39010;48.088;7.954;2023-01-28T00:03:12;99124.38;;;-0.11;83.70
53116;BME280;39010;48.088;7.954;2023-01-28T00:05:41;99122.88;;;-0.15;83.68
53116;BME280;39010;48.088;7.954;2023-01-28T00:08:08;99110.53;;;-0.14;84.04
53116;BME280;39010;48.088;7.954;2023-01-28T00:10:36;99115.06;;;-0.17;84.08
53116;BME280;39010;48.088;7.954;2023-01-28T00:13:11;99108.41;;;-0.22;84.47
53116;BME280;39010;48.088;7.954;2023-01-28T00:15:38;99109.06;;;-0.19;85.06
53116;BME280;39010;48.088;7.954;2023-01-28T00:18:05;99111.38;;;-0.14;84.44
53116;BME280;39010;48.088;7.954;2023-01-28T00:20:31;99113.06;;;-0.13;84.62
53116;BME280;39010;48.088;7.954;2023-01-28T00:22:58;99110.13;;;-0.08;84.51
53116;BME280;39010;48.088;7.954;2023-01-28T00:25:24;99111.50;;;-0.16;84.95
53116;BME280;39010;48.088;7.954;2023-01-28T00:27:51;99103.56;;;-0.16;84.32
53116;BME280;39010;48.088;7.954;2023-01-28T00:30:17;99100.81;;;-0.14;84.65
53116;BME280;39010;48.088;7.954;2023-01-28T00:32:44;99099.47;;;-0.07;84.42
53116;BME280;39010;48.088;7.954;2023-01-28T00:35:11;99096.00;;;-0.07;84.47
53116;BME280;39010;48.088;7.954;2023-01-28T00:37:40;99094.94;;;-0.05;84.78
53116;BME280;39010;48.088;7.954;2023-01-28T00:40:06;99097.88;;;-0.09;84.53
53116;BME280;39010;48.088;7.954;2023-01-28T00:42:35;99102.50;;;-0.13;84.64
53116;BME280;39010;48.088;7.954;2023-01-28T00:45:03;99100.13;;;-0.03;85.02
53116;BME280;39010;48.088;7.954;2023-01-28T00:47:29;99100.63;;;-0.11;84.90
53116;BME280;39010;48.088;7.954;2023-01-28T00:49:56;99104.19;;;-0.12;85.40
53116;BME280;39010;48.088;7.954;2023-01-28T00:52:22;99108.53;;;-0.11;85.30
53116;BME280;39010;48.088;7.954;2023-01-28T00:54:48;99104.00;;;-0.09;85.20
53116;BME280;39010;48.088;7.954;2023-01-28T00:57:15;99102.75;;;-0.03;84.40
53116;BME280;39010;48.088;7.954;2023-01-28T00:59:41;99100.00;;;-0.02;84.68
53116;BME280;39010;48.088;7.954;2023-01-28T01:02:09;99101.69;;;-0.01;85.44
53116;BME280;39010;48.088;7.954;2023-01-28T01:04:39;99094.31;;;-0.08;84.87
53116;BME280;39010;48.088;7.954;2023-01-28T01:07:06;99100.41;;;-0.08;84.96
53116;BME280;39010;48.088;7.954;2023-01-28T01:09:33;99098.50;;;-0.06;85.06
53116;BME280;39010;48.088;7.954;2023-01-28T01:11:59;99089.56;;;-0.03;84.95
53116;BME280;39010;48.088;7.954;2023-01-28T01:14:26;99104.53;;;-0.04;85.88
53116;BME280;39010;48.088;7.954;2023-01-28T01:16:53;99100.00;;;-0.02;84.67
53116;BME280;39010;48.088;7.954;2023-01-28T01:19:20;99100.13;;;-0.03;85.28
53116;BME280;39010;48.088;7.954;2023-01-28T01:21:46;99101.75;;;-0.15;85.27
53116;BME280;39010;48.088;7.954;2023-01-28T01:24:16;99106.50;;;-0.20;85.98
53116;BME280;39010;48.088;7.954;2023-01-28T01:26:43;99102.75;;;-0.03;85.90
53116;BME280;39010;48.088;7.954;2023-01-28T01:29:09;99101.28;;;0.06;85.54
53116;BME280;39010;48.088;7.954;2023-01-28T01:31:36;99103.03;;;-0.21;86.38
53116;BME280;39010;48.088;7.954;2023-01-28T01:34:02;99105.97;;;-0.25;87.38
53116;BME280;39010;48.088;7.954;2023-01-28T01:36:30;99093.19;;;-0.32;88.31
53116;BME280;39010;48.088;7.954;2023-01-28T01:38:56;99094.06;;;-0.18;87.57
53116;BME280;39010;48.088;7.954;2023-01-28T01:41:29;99106.22;;;-0.03;87.60
53116;BME280;39010;48.088;7.954;2023-01-28T01:44:01;99101.69;;;-0.13;87.79
53116;BME280;39010;48.088;7.954;2023-01-28T01:46:33;99106.81;;;-0.25;87.61
53116;BME280;39010;48.088;7.954;2023-01-28T01:51:45;99113.88;;;-0.25;88.63
53116;BME280;39010;48.088;7.954;2023-01-28T01:54:13;99116.44;;;-0.11;86.89
53116;BME280;39010;48.088;7.954;2023-01-28T01:56:42;99103.03;;;-0.08;86.50
53116;BME280;39010;48.088;7.954;2023-01-28T01:59:13;99110.03;;;-0.07;86.93
53116;BME280;39010;48.088;7.954;2023-01-28T02:01:41;99104.66;;;-0.05;85.33
53116;BME280;39010;48.088;7.954;2023-01-28T02:04:16;99112.44;;;-0.04;84.69
53116;BME280;39010;48.088;7.954;2023-01-28T02:06:44;99108.34;;;0.05;83.82
53116;BME280;39010;48.088;7.954;2023-01-28T02:12:00;99110.34;;;0.02;84.90
53116;BME280;39010;48.088;7.954;2023-01-28T02:14:31;99105.06;;;0.02;84.51
53116;BME280;39010;48.088;7.954;2023-01-28T02:17:00;99103.16;;;0.04;84.32
53116;BME280;39010;48.088;7.954;2023-01-28T02:19:36;99102.56;;;0.13;83.77
53116;BME280;39010;48.088;7.954;2023-01-28T02:22:05;99098.84;;;0.03;84.07
53116;BME280;39010;48.088;7.954;2023-01-28T02:27:46;99098.44;;;0.09;84.17
53116;BME280;39010;48.088;7.954;2023-01-28T02:30:19;99089.84;;;0.05;84.42
53116;BME280;39010;48.088;7.954;2023-01-28T02:33:00;99107.19;;;0.09;83.99
53116;BME280;39010;48.088;7.954;2023-01-28T02:35:35;99101.69;;;-0.01;84.75
53116;BME280;39010;48.088;7.954;2023-01-28T02:38:11;99102.44;;;0.02;84.52
53116;BME280;39010;48.088;7.954;2023-01-28T02:40:42;99107.28;;;0.08;84.01
53116;BME280;39010;48.088;7.954;2023-01-28T02:43:35;99106.97;;;0.12;84.64
53116;BME280;39010;48.088;7.954;2023-01-28T02:46:31;99109.06;;;0.07;84.72
53116;BME280;39010;48.088;7.954;2023-01-28T02:49:22;99114.34;;;0.07;84.97
53116;BME280;39010;48.088;7.954;2023-01-28T02:52:11;99113.94;;;0.13;84.92
53116;BME280;39010;48.088;7.954;2023-01-28T02:55:03;99110.16;;;0.05;84.84
53116;BME280;39010;48.088;7.954;2023-01-28T02:57:44;99104.25;;;0.14;84.77
53116;BME280;39010;48.088;7.954;2023-01-28T03:03:21;99113.66;;;0.18;84.55
53116;BME280;39010;48.088;7.954;2023-01-28T03:05:46;99110.16;;;0.18;84.44
53116;BME280;39010;48.088;7.954;2023-01-28T03:08:43;99113.66;;;0.18;84.58
53116;BME280;39010;48.088;7.954;2023-01-28T03:11:33;99116.09;;;0.21;84.69
53116;BME280;39010;48.088;7.954;2023-01-28T03:14:21;99110.38;;;0.27;83.42
53116;BME280;39010;48.088;7.954;2023-01-28T03:17:15;99112.69;;;0.19;82.92
53116;BME280;39010;48.088;7.954;2023-01-28T03:20:03;99117.97;;;0.19;82.83
53116;BME280;39010;48.088;7.954;2023-01-28T03:22:52;99117.13;;;0.19;82.91
53116;BME280;39010;48.088;7.954;2023-01-28T03:25:41;99125.03;;;0.19;83.17
53116;BME280;39010;48.088;7.954;2023-01-28T03:28:30;99124.22;;;0.18;83.07
53116;BME280;39010;48.088;7.954;2023-01-28T03:31:18;99127.59;;;0.20;83.35
53116;BME280;39010;48.088;7.954;2023-01-28T03:34:06;99129.38;;;0.20;82.74
53116;BME280;39010;48.088;7.954;2023-01-28T03:36:54;99127.38;;;0.23;82.75
53116;BME280;39010;48.088;7.954;2023-01-28T03:39:39;99126.44;;;0.24;82.95
53116;BME280;39010;48.088;7.954;2023-01-28T03:42:11;99123.06;;;0.22;82.86
53116;BME280;39010;48.088;7.954;2023-01-28T03:45:05;99123.25;;;0.19;82.82
53116;BME280;39010;48.088;7.954;2023-01-28T03:47:33;99132.53;;;0.12;83.37
53116;BME280;39010;48.088;7.954;2023-01-28T03:50:03;99134.97;;;0.15;83.20
53116;BME280;39010;48.088;7.954;2023-01-28T03:52:40;99127.34;;;0.10;83.83
53116;BME280;39010;48.088;7.954;2023-01-28T03:55:20;99130.66;;;0.14;82.91
53116;BME280;39010;48.088;7.954;2023-01-28T03:57:49;99128.34;;;0.22;83.27
53116;BME280;39010;48.088;7.954;2023-01-28T04:00:16;99122.41;;;0.19;83.10
53116;BME280;39010;48.088;7.954;2023-01-28T04:02:43;99123.88;;;0.23;83.28
53116;BME280;39010;48.088;7.954;2023-01-28T04:05:13;99129.50;;;0.18;83.18
53116;BME280;39010;48.088;7.954;2023-01-28T04:07:45;99131.19;;;0.19;82.67
53116;BME280;39010;48.088;7.954;2023-01-28T04:10:32;99130.44;;;0.17;82.85
53116;BME280;39010;48.088;7.954;2023-01-28T04:13:18;99135.72;;;0.17;83.30
53116;BME280;39010;48.088;7.954;2023-01-28T04:15:45;99136.47;;;0.19;82.86
53116;BME280;39010;48.088;7.954;2023-01-28T04:18:13;99136.75;;;0.14;83.33
53116;BME280;39010;48.088;7.954;2023-01-28T04:20:40;99140.47;;;0.12;83.15
53116;BME280;39010;48.088;7.954;2023-01-28T04:23:06;99140.34;;;0.13;83.18
53116;BME280;39010;48.088;7.954;2023-01-28T04:25:33;99144.06;;;0.11;82.71
53116;BME280;39010;48.088;7.954;2023-01-28T04:28:03;99138.97;;;0.21;82.66
53116;BME280;39010;48.088;7.954;2023-01-28T04:30:30;99147.56;;;0.24;82.49
53116;BME280;39010;48.088;7.954;2023-01-28T04:33:06;99140.13;;;0.17;82.88
53116;BME280;39010;48.088;7.954;2023-01-28T04:35:45;99138.44;;;0.16;83.25
53116;BME280;39010;48.088;7.954;2023-01-28T04:38:30;99140.13;;;0.17;82.83
53116;BME280;39010;48.088;7.954;2023-01-28T04:41:04;99144.59;;;0.16;82.38
53116;BME280;39010;48.088;7.954;2023-01-28T04:43:33;99140.34;;;0.13;82.57
53116;BME280;39010;48.088;7.954;2023-01-28T04:46:18;99144.38;;;0.19;83.21
53116;BME280;39010;48.088;7.954;2023-01-28T04:49:00;99146.50;;;0.14;82.75
53116;BME280;39010;48.088;7.954;2023-01-28T04:51:37;99155.25;;;0.14;83.30
53116;BME280;39010;48.088;7.954;2023-01-28T04:54:14;99159.06;;;0.23;82.51
53116;BME280;39010;48.088;7.954;2023-01-28T04:56:41;99158.94;;;0.12;82.85
53116;BME280;39010;48.088;7.954;2023-01-28T04:59:08;99157.06;;;0.14;83.14
53116;BME280;39010;48.088;7.954;2023-01-28T05:01:36;99161.78;;;0.09;83.13
53116;BME280;39010;48.088;7.954;2023-01-28T05:04:04;99153.97;;;0.07;83.36
53116;BME280;39010;48.088;7.954;2023-01-28T05:06:34;99162.75;;;0.08;83.66
53116;BME280;39010;48.088;7.954;2023-01-28T05:09:08;99156.81;;;0.04;83.50
53116;BME280;39010;48.088;7.954;2023-01-28T05:11:35;99160.09;;;0.08;83.43
53116;BME280;39010;48.088;7.954;2023-01-28T05:14:05;99163.16;;;0.14;83.24
53116;BME280;39010;48.088;7.954;2023-01-28T05:16:38;99164.78;;;0.17;82.75
53116;BME280;39010;48.088;7.954;2023-01-28T05:19:06;99164.03;;;0.15;83.45
53116;BME280;39010;48.088;7.954;2023-01-28T05:21:39;99165.72;;;0.16;83.17
53116;BME280;39010;48.088;7.954;2023-01-28T05:24:13;99171.53;;;0.21;83.44
53116;BME280;39010;48.088;7.954;2023-01-28T05:26:43;99178.50;;;0.22;83.49
53116;BME280;39010;48.088;7.954;2023-01-28T05:29:10;99180.69;;;0.16;83.64
53116;BME280;39010;48.088;7.954;2023-01-28T05:31:38;99168.91;;;0.21;83.54
53116;BME280;39010;48.088;7.954;2023-01-28T05:34:04;99174.47;;;0.17;83.32
53116;BME280;39010;48.088;7.954;2023-01-28T05:36:31;99181.16;;;0.22;83.47
53116;BME280;39010;48.088;7.954;2023-01-28T05:39:03;99181.97;;;0.23;84.13
53116;BME280;39010;48.088;7.954;2023-01-28T05:41:29;99179.47;;;0.21;83.14
53116;BME280;39010;48.088;7.954;2023-01-28T05:43:59;99180.28;;;0.22;83.44
53116;BME280;39010;48.088;7.954;2023-01-28T05:46:52;99179.88;;;0.15;83.35
53116;BME280;39010;48.088;7.954;2023-01-28T05:49:37;99183.25;;;0.17;83.95
53116;BME280;39010;48.088;7.954;2023-01-28T05:52:22;99186.84;;;0.16;83.72
53116;BME280;39010;48.088;7.954;2023-01-28T05:54:49;99181.16;;;0.22;83.50
53116;BME280;39010;48.088;7.954;2023-01-28T05:57:16;99178.91;;;0.16;83.80
53116;BME280;39010;48.088;7.954;2023-01-28T05:59:42;99184.75;;;0.21;83.58
53116;BME280;39010;48.088;7.954;2023-01-28T06:02:09;99180.50;;;0.19;84.31
53116;BME280;39010;48.088;7.954;2023-01-28T06:04:35;99192.53;;;0.23;83.94
53116;BME280;39010;48.088;7.954;2023-01-28T06:07:02;99186.53;;;0.21;83.86
53116;BME280;39010;48.088;7.954;2023-01-28T06:09:28;99190.66;;;0.25;83.53
53116;BME280;39010;48.088;7.954;2023-01-28T06:11:55;99194.44;;;0.21;83.30
53116;BME280;39010;48.088;7.954;2023-01-28T06:14:22;99190.97;;;0.20;83.22
53116;BME280;39010;48.088;7.954;2023-01-28T06:17:03;99190.34;;;0.29;83.38
53116;BME280;39010;48.088;7.954;2023-01-28T06:19:59;99186.22;;;0.25;83.36
53116;BME280;39010;48.088;7.954;2023-01-28T06:22:28;99201.88;;;0.28;82.01
53116;BME280;39010;48.088;7.954;2023-01-28T06:24:54;99194.34;;;0.22;81.54
53116;BME280;39010;48.088;7.954;2023-01-28T06:27:21;99191.31;;;0.28;80.97
53116;BME280;39010;48.088;7.954;2023-01-28T06:29:47;99202.69;;;0.29;80.91
53116;BME280;39010;48.088;7.954;2023-01-28T06:32:15;99205.03;;;0.34;81.67
53116;BME280;39010;48.088;7.954;2023-01-28T06:34:41;99210.13;;;0.37;81.32
53116;BME280;39010;48.088;7.954;2023-01-28T06:37:11;99207.78;;;0.32;82.11
53116;BME280;39010;48.088;7.954;2023-01-28T06:39:38;99212.97;;;0.34;82.28
53116;BME280;39010;48.088;7.954;2023-01-28T06:42:05;99214.13;;;0.29;82.02
53116;BME280;39010;48.088;7.954;2023-01-28T06:44:31;99219.41;;;0.29;82.27
53116;BME280;39010;48.088;7.954;2023-01-28T06:46:58;99229.22;;;0.27;82.44
53116;BME280;39010;48.088;7.954;2023-01-28T06:49:24;99242.97;;;0.33;82.20
53116;BME280;39010;48.088;7.954;2023-01-28T06:51:53;99234.31;;;0.31;82.39
53116;BME280;39010;48.088;7.954;2023-01-28T06:54:20;99236.75;;;0.34;82.49
53116;BME280;39010;48.088;7.954;2023-01-28T06:56:46;99238.22;;;0.38;81.99
53116;BME280;39010;48.088;7.954;2023-01-28T06:59:13;99236.34;;;0.40;81.59
53116;BME280;39010;48.088;7.954;2023-01-28T07:01:39;99234.50;;;0.27;81.96
53116;BME280;39010;48.088;7.954;2023-01-28T07:04:06;99242.03;;;0.34;81.94
53116;BME280;39010;48.088;7.954;2023-01-28T07:06:32;99236.94;;;0.31;81.43
53116;BME280;39010;48.088;7.954;2023-01-28T07:08:59;99237.91;;;0.29;80.72
53116;BME280;39010;48.088;7.954;2023-01-28T07:11:25;99243.47;;;0.25;79.92
53116;BME280;39010;48.088;7.954;2023-01-28T07:13:52;99247.72;;;0.27;79.36
53116;BME280;39010;48.088;7.954;2023-01-28T07:16:44;99253.00;;;0.40;79.68
53116;BME280;39010;48.088;7.954;2023-01-28T07:19:12;99247.72;;;0.40;79.47
53116;BME280;39010;48.088;7.954;2023-01-28T07:21:39;99250.69;;;0.36;79.57
53116;BME280;39010;48.088;7.954;2023-01-28T07:24:05;99269.41;;;0.46;76.50
53116;BME280;39010;48.088;7.954;2023-01-28T07:26:33;99250.09;;;0.45;75.24
53116;BME280;39010;48.088;7.954;2023-01-28T07:28:59;99242.91;;;0.47;74.91
53116;BME280;39010;48.088;7.954;2023-01-28T07:31:26;99253.66;;;0.44;74.56
53116;BME280;39010;48.088;7.954;2023-01-28T07:33:52;99250.91;;;0.46;74.29
53116;BME280;39010;48.088;7.954;2023-01-28T07:36:19;99263.63;;;0.53;73.87
53116;BME280;39010;48.088;7.954;2023-01-28T07:38:45;99268.25;;;0.50;73.66
53116;BME280;39010;48.088;7.954;2023-01-28T07:41:12;99265.41;;;0.53;74.06
53116;BME280;39010;48.088;7.954;2023-01-28T07:43:38;99263.63;;;0.53;73.25
53116;BME280;39010;48.088;7.954;2023-01-28T07:46:05;99262.75;;;0.53;74.12
53116;BME280;39010;48.088;7.954;2023-01-28T07:48:32;99265.13;;;0.57;73.37
53116;BME280;39010;48.088;7.954;2023-01-28T07:50:58;99271.16;;;0.60;73.29
53116;BME280;39010;48.088;7.954;2023-01-28T07:53:25;99271.16;;;0.60;72.38
53116;BME280;39010;48.088;7.954;2023-01-28T07:55:58;99274.88;;;0.70;70.83
53116;BME280;39010;48.088;7.954;2023-01-28T07:58:24;99270.41;;;0.70;69.38
53116;BME280;39010;48.088;7.954;2023-01-28T08:00:55;99271.28;;;0.71;69.76
53116;BME280;39010;48.088;7.954;2023-01-28T08:03:22;99273.91;;;0.71;70.44
53116;BME280;39010;48.088;7.954;2023-01-28T08:05:49;99267.69;;;0.72;71.30
53116;BME280;39010;48.088;7.954;2023-01-28T08:08:17;99272.09;;;0.71;71.80
53116;BME280;39010;48.088;7.954;2023-01-28T08:10:44;99272.97;;;0.72;72.11
53116;BME280;39010;48.088;7.954;2023-01-28T08:13:13;99277.72;;;0.80;71.51
53116;BME280;39010;48.088;7.954;2023-01-28T08:15:41;99284.69;;;0.81;72.49
53116;BME280;39010;48.088;7.954;2023-01-28T08:18:09;99292.00;;;0.77;72.40
53116;BME280;39010;48.088;7.954;2023-01-28T08:20:39;99293.06;;;0.87;71.81
53116;BME280;39010;48.088;7.954;2023-01-28T08:23:12;99296.44;;;0.90;71.74
53116;BME280;39010;48.088;7.954;2023-01-28T08:25:39;99296.00;;;0.96;72.83
53116;BME280;39010;48.088;7.954;2023-01-28T08:28:06;99302.56;;;1.03;72.67
53116;BME280;39010;48.088;7.954;2023-01-28T08:30:34;99301.31;;;1.09;72.99
53116;BME280;39010;48.088;7.954;2023-01-28T08:33:01;99307.44;;;1.09;73.64
53116;BME280;39010;48.088;7.954;2023-01-28T08:35:27;99303.66;;;1.00;73.29
53116;BME280;39010;48.088;7.954;2023-01-28T08:37:54;99304.91;;;1.08;72.97
53116;BME280;39010;48.088;7.954;2023-01-28T08:40:21;99306.63;;;1.09;72.94
53116;BME280;39010;48.088;7.954;2023-01-28T08:42:49;99309.88;;;1.12;72.80
53116;BME280;39010;48.088;7.954;2023-01-28T08:45:16;99302.47;;;1.17;71.99
53116;BME280;39010;48.088;7.954;2023-01-28T08:47:48;99314.84;;;1.30;72.49
53116;BME280;39010;48.088;7.954;2023-01-28T08:50:15;99313.47;;;1.37;70.91
53116;BME280;39010;48.088;7.954;2023-01-28T08:52:44;99305.34;;;1.40;69.75
53116;BME280;39010;48.088;7.954;2023-01-28T08:55:11;99312.66;;;1.37;70.60
53116;BME280;39010;48.088;7.954;2023-01-28T08:57:39;99307.69;;;1.45;70.09
53116;BME280;39010;48.088;7.954;2023-01-28T09:00:07;99305.97;;;1.44;70.84
53116;BME280;39010;48.088;7.954;2023-01-28T09:02:36;99316.31;;;1.60;70.65
53116;BME280;39010;48.088;7.954;2023-01-28T09:05:04;99312.50;;;1.64;70.44
53116;BME280;39010;48.088;7.954;2023-01-28T09:07:32;99317.28;;;1.59;69.73
53116;BME280;39010;48.088;7.954;2023-01-28T09:09:59;99315.38;;;1.61;69.24
53116;BME280;39010;48.088;7.954;2023-01-28T09:12:26;99315.50;;;1.59;68.91
53116;BME280;39010;48.088;7.954;2023-01-28T09:14:53;99319.19;;;1.57;69.42
53116;BME280;39010;48.088;7.954;2023-01-28T09:17:20;99329.25;;;1.65;69.68
53116;BME280;39010;48.088;7.954;2023-01-28T09:19:46;99328.38;;;1.64;70.82
53116;BME280;39010;48.088;7.954;2023-01-28T09:22:13;99328.59;;;1.74;70.93
53116;BME280;39010;48.088;7.954;2023-01-28T09:24:39;99328.13;;;1.80;70.14
53116;BME280;39010;48.088;7.954;2023-01-28T09:27:06;99323.88;;;1.90;69.00
53116;BME280;39010;48.088;7.954;2023-01-28T09:29:33;99321.53;;;1.99;68.87
53116;BME280;39010;48.088;7.954;2023-01-28T09:32:00;99321.72;;;2.09;68.98
53116;BME280;39010;48.088;7.954;2023-01-28T09:34:27;99336.47;;;2.00;67.98
53116;BME280;39010;48.088;7.954;2023-01-28T09:36:53;99338.34;;;2.11;68.18
53116;BME280;39010;48.088;7.954;2023-01-28T09:39:20;99337.19;;;2.15;67.67
53116;BME280;39010;48.088;7.954;2023-01-28T09:47:03;99343.31;;;2.15;67.88
53116;BME280;39010;48.088;7.954;2023-01-28T09:49:39;99344.97;;;1.92;68.26
53116;BME280;39010;48.088;7.954;2023-01-28T09:52:15;99344.03;;;1.80;68.25
53116;BME280;39010;48.088;7.954;2023-01-28T09:54:49;99343.44;;;2.01;67.88
53116;BME280;39010;48.088;7.954;2023-01-28T09:57:21;99347.19;;;1.98;67.97
53116;BME280;39010;48.088;7.954;2023-01-28T09:59:49;99343.75;;;2.09;67.46
53116;BME280;39010;48.088;7.954;2023-01-28T10:05:40;99342.97;;;2.93;65.32
53116;BME280;39010;48.088;7.954;2023-01-28T10:08:31;99341.88;;;2.95;65.45
53116;BME280;39010;48.088;7.954;2023-01-28T10:13:56;99335.47;;;3.68;63.68
53116;BME280;39010;48.088;7.954;2023-01-28T10:16:34;99331.25;;;4.97;59.18
53116;BME280;39010;48.088;7.954;2023-01-28T10:19:09;99334.81;;;4.21;59.31
53116;BME280;39010;48.088;7.954;2023-01-28T10:21:49;99327.00;;;3.97;60.82
53116;BME280;39010;48.088;7.954;2023-01-28T10:24:32;99322.69;;;3.73;60.94
53116;BME280;39010;48.088;7.954;2023-01-28T10:26:59;99334.72;;;3.43;62.06
53116;BME280;39010;48.088;7.954;2023-01-28T10:29:28;99330.03;;;3.35;62.25
53116;BME280;39010;48.088;7.954;2023-01-28T10:32:03;99335.75;;;3.06;62.41
53116;BME280;39010;48.088;7.954;2023-01-28T10:34:31;99329.56;;;2.94;63.25
53116;BME280;39010;48.088;7.954;2023-01-28T10:36:58;99320.31;;;3.00;63.66
53116;BME280;39010;48.088;7.954;2023-01-28T10:39:25;99312.94;;;3.04;63.52
53116;BME280;39010;48.088;7.954;2023-01-28T10:41:53;99320.44;;;3.10;62.84
53116;BME280;39010;48.088;7.954;2023-01-28T10:44:31;99312.50;;;3.21;61.73
53116;BME280;39010;48.088;7.954;2023-01-28T10:47:12;99299.00;;;3.24;63.25
53116;BME280;39010;48.088;7.954;2023-01-28T10:49:44;99294.56;;;3.25;62.76
53116;BME280;39010;48.088;7.954;2023-01-28T10:52:14;99302.63;;;3.23;62.56
53116;BME280;39010;48.088;7.954;2023-01-28T10:54:41;99303.09;;;3.17;62.28
53116;BME280;39010;48.088;7.954;2023-01-28T10:57:13;99293.28;;;2.95;63.32
53116;BME280;39010;48.088;7.954;2023-01-28T10:59:42;99302.19;;;2.83;63.42
53116;BME280;39010;48.088;7.954;2023-01-28T11:02:27;99303.03;;;2.94;62.82
53116;BME280;39010;48.088;7.954;2023-01-28T11:05:05;99300.78;;;3.01;63.24
53116;BME280;39010;48.088;7.954;2023-01-28T11:07:33;99302.47;;;3.02;63.32
53116;BME280;39010;48.088;7.954;2023-01-28T11:10:00;99299.50;;;3.52;62.18
53116;BME280;39010;48.088;7.954;2023-01-28T11:12:29;99296.34;;;3.81;60.67
53116;BME280;39010;48.088;7.954;2023-01-28T11:15:01;99301.44;;;3.73;60.39
53116;BME280;39010;48.088;7.954;2023-01-28T11:17:36;99305.28;;;3.46;61.06
53116;BME280;39010;48.088;7.954;2023-01-28T11:20:17;99304.69;;;3.54;61.50
53116;BME280;39010;48.088;7.954;2023-01-28T11:22:47;99304.56;;;3.33;61.40
53116;BME280;39010;48.088;7.954;2023-01-28T11:25:18;99303.59;;;3.34;62.18
53116;BME280;39010;48.088;7.954;2023-01-28T11:27:49;99307.13;;;3.46;61.80
53116;BME280;39010;48.088;7.954;2023-01-28T11:30:22;99298.06;;;3.60;61.59
53116;BME280;39010;48.088;7.954;2023-01-28T11:32:57;99299.00;;;3.70;61.91
53116;BME280;39010;48.088;7.954;2023-01-28T11:35:28;99304.66;;;4.97;58.71
53116;BME280;39010;48.088;7.954;2023-01-28T11:37:57;99298.53;;;4.64;57.83
53116;BME280;39010;48.088;7.954;2023-01-28T11:40:24;99303.84;;;4.64;58.34
53116;BME280;39010;48.088;7.954;2023-01-28T11:42:53;99310.78;;;4.55;59.61
53116;BME280;39010;48.088;7.954;2023-01-28T11:50:58;99302.59;;;5.01;58.62
53116;BME280;39010;48.088;7.954;2023-01-28T11:56:50;99296.09;;;4.40;59.53
53116;BME280;39010;48.088;7.954;2023-01-28T12:13:27;99289.63;;;5.39;57.94
53116;BME280;39010;48.088;7.954;2023-01-28T12:29:40;99299.50;;;3.87;62.22
53116;BME280;39010;48.088;7.954;2023-01-28T12:32:23;99293.47;;;3.50;62.25
53116;BME280;39010;48.088;7.954;2023-01-28T12:38:14;99300.22;;;3.32;63.18
53116;BME280;39010;48.088;7.954;2023-01-28T12:40:52;99303.00;;;3.19;63.52
53116;BME280;39010;48.088;7.954;2023-01-28T12:43:36;99307.81;;;3.14;63.65
53116;BME280;39010;48.088;7.954;2023-01-28T12:46:15;99303.00;;;2.83;64.63
53116;BME280;39010;48.088;7.954;2023-01-28T12:48:53;99299.91;;;3.01;64.60
53116;BME280;39010;48.088;7.954;2023-01-28T12:51:31;99304.97;;;2.92;65.58
53116;BME280;39010;48.088;7.954;2023-01-28T12:54:28;99306.69;;;3.05;64.67
53116;BME280;39010;48.088;7.954;2023-01-28T12:56:57;99304.84;;;2.94;64.60
53116;BME280;39010;48.088;7.954;2023-01-28T12:59:33;99308.06;;;2.86;65.53
53116;BME280;39010;48.088;7.954;2023-01-28T13:04:49;99314.25;;;2.87;65.07
53116;BME280;39010;48.088;7.954;2023-01-28T13:07:21;99314.81;;;2.79;66.15
53116;BME280;39010;48.088;7.954;2023-01-28T13:09:52;99315.91;;;2.76;66.51
53116;BME280;39010;48.088;7.954;2023-01-28T13:12:21;99317.47;;;2.79;67.02
53116;BME280;39010;48.088;7.954;2023-01-28T13:14:48;99311.97;;;2.93;66.33
53116;BME280;39010;48.088;7.954;2023-01-28T13:17:28;99318.19;;;2.81;66.15
53116;BME280;39010;48.088;7.954;2023-01-28T13:19:56;99320.09;;;2.79;65.44
53116;BME280;39010;48.088;7.954;2023-01-28T13:22:34;99321.34;;;2.86;66.05
53116;BME280;39010;48.088;7.954;2023-01-28T13:25:22;99316.66;;;2.90;66.08
53116;BME280;39010;48.088;7.954;2023-01-28T13:28:04;99316.03;;;2.86;65.92
53116;BME280;39010;48.088;7.954;2023-01-28T13:30:34;99316.72;;;2.77;64.54
53116;BME280;39010;48.088;7.954;2023-01-28T13:33:03;99317.19;;;2.71;65.29
53116;BME280;39010;48.088;7.954;2023-01-28T13:35:34;99323.72;;;2.78;64.49
53116;BME280;39010;48.088;7.954;2023-01-28T13:38:15;99325.19;;;2.82;64.35
53116;BME280;39010;48.088;7.954;2023-01-28T13:40:52;99322.00;;;2.65;63.92
53116;BME280;39010;48.088;7.954;2023-01-28T13:46:01;99314.22;;;2.75;64.09
53116;BME280;39010;48.088;7.954;2023-01-28T13:48:41;99323.22;;;2.73;62.93
53116;BME280;39010;48.088;7.954;2023-01-28T13:51:18;99323.94;;;2.63;61.89
53116;BME280;39010;48.088;7.954;2023-01-28T13:56:40;99329.09;;;2.65;62.07
53116;BME280;39010;48.088;7.954;2023-01-28T13:59:20;99327.88;;;2.58;60.28
53116;BME280;39010;48.088;7.954;2023-01-28T14:02:09;99329.94;;;2.65;60.13
53116;BME280;39010;48.088;7.954;2023-01-28T14:10:39;99346.66;;;2.55;60.71
53116;BME280;39010;48.088;7.954;2023-01-28T14:14:16;99335.78;;;2.46;59.82
53116;BME280;39010;48.088;7.954;2023-01-28T14:16:26;99335.03;;;2.44;60.30
53116;BME280;39010;48.088;7.954;2023-01-28T14:18:59;99342.66;;;2.49;60.04
53116;BME280;39010;48.088;7.954;2023-01-28T14:21:27;99349.09;;;2.58;59.99
53116;BME280;39010;48.088;7.954;2023-01-28T14:23:58;99344.00;;;2.55;59.78
53116;BME280;39010;48.088;7.954;2023-01-28T14:29:26;99349.09;;;2.58;58.82
53116;BME280;39010;48.088;7.954;2023-01-28T14:32:04;99347.38;;;2.57;59.70
53116;BME280;39010;48.088;7.954;2023-01-28T14:34:33;99361.22;;;2.49;59.12
53116;BME280;39010;48.088;7.954;2023-01-28T14:37:08;99360.03;;;2.53;59.83
53116;BME280;39010;48.088;7.954;2023-01-28T14:39:44;99356.44;;;2.54;60.20
53116;BME280;39010;48.088;7.954;2023-01-28T14:42:23;99355.47;;;2.55;60.36
53116;BME280;39010;48.088;7.954;2023-01-28T14:47:45;99360.03;;;2.53;62.37
53116;BME280;39010;48.088;7.954;2023-01-28T14:50:25;99366.28;;;2.52;63.24
53116;BME280;39010;48.088;7.954;2023-01-28T14:53:16;99381.03;;;2.56;63.77
53116;BME280;39010;48.088;7.954;2023-01-28T14:55:56;99382.88;;;2.43;64.25
53116;BME280;39010;48.088;7.954;2023-01-28T14:58:30;99383.09;;;2.40;65.20